메인 페이지
METAR-TAF:

METAR-TAF

공항 :

마푸투, 모잠비크

위도: 25-55S, 경도: 032-34E, 고도: 39m

현재 날씨관측

예보는 1 시간 11분 전, 00:00시(UTC)에 발표되었습니다.
13kt
온도 23°C
습도 94%
기압 1010 hPa
시정: 5000m
고도 1000ft 상공 구름 보통
고도 2000ft 상공 구름 많음
뇌우, 비

METAR: FQMA 250000Z 19013KT 9999 5000 TSRA SCT010 BKN020 23/22 Q1010 NOSIG RMK CB TO SW/W/N

시각: 03:11 (01:11 UTC)

예보

예보는 9 시간 11분 전, 16:00시(UTC)에 발표되었습니다.
예보 대상 시간: 24일 18시부터 25일 24시까지 (UTC)
12kt
시정 10km 이상
고도 2000ft 상공 구름 많음
확률 30% :
일시적
24일 18시부터 24일 24시까지 (UTC)
시정: 5000m
고도 2000ft 상공 구름 많음
고도 2500ft 상공 구름 조금, 적란운.
뇌우, 비
전환 중
24일 19시부터 24일 21시까지 (UTC)
남서15kt
전환 중
25일 07시부터 25일 09시까지 (UTC)
남남동10kt

TAF: FQMA 241600Z 2418/2524 10012KT 9999 BKN020 TX30/2513Z TN24/2504Z PROB30 TEMPO 2418/2424 5000 TSRA BKN020 FEW025CB BECMG 2419/2421 23015KT BECMG 2507/2509 16010KT

4,000개 이상의 공항 관측 자료 및 예보 (METAR 및 TAF 보고).

지도상에서 검색 가능한 기상관측소가 노란 점과 빨간 점으로 표시되어 있습니다.

기상관측소 명을 보려면 표시 위로 마우스를 이동하세요.

날씨 관측과 예보를 보려면 클릭하세요.

지도 변경 : 확대하려면 엑스 표시가 있는 녹색 버튼, 축소하려면 빼기 표시가 있는 녹색 버튼, 다음 페이지의 지도를 보려면 녹색 화살표를 클릭하세요.


METAR-TAF: